Ricouno — 9GPM — position and weather

sailwx.info

Track history (hours):
 
Tides and Currents Weather Stations Pressure Air Temp Water Temp Dewpoint Dewpoint Depression Visibility Wind Speed Wind Dir Waves Ship Positions

Ricouno

Last reported at 2018-Jun-18 18:55 UTC. Time now 2018-Jun-20 20:34 UTC.
Position N 05°33' E 000°24'.

Type: Fishing. MMSI: 627720000.

Date/timePositionNaut miles runAvg speedWind from/ knotsBaromVisibWave heightAir tempDewpointWater temp
2018-Jun-18 18:55N 05°33' E 000°24'510.5
2018-Jun-18 18:28N 05°33' E 000°20'510.4
2018-Jun-18 18:00N 05°34' E 000°15'510.1
2018-Jun-18 17:30N 05°36' E 000°10'5 9.2
2018-Jun-18 17:00N 05°37' E 000°06'4 8.1
2018-Jun-18 16:30N 05°37' E 000°02'4 9.0
2018-Jun-18 16:00N 05°34' W 000°01'510.5
2018-Jun-18 15:30N 05°30' W 000°04'510.7
2018-Jun-18 15:00N 05°27' W 000°09'510.5
2018-Jun-18 14:30N 05°26' W 000°14'8 0.4
2018-Jun-17 18:45N 05°24' W 000°22'5 4.4
2018-Jun-17 17:42N 05°23' W 000°18'3 8.4
2018-Jun-17 17:22N 05°22' W 000°15'6 8.0
2018-Jun-17 16:34N 05°21' W 000°09'1 8.2
2018-Jun-17 16:29N 05°21' W 000°08'4 8.2
2018-Jun-17 16:00N 05°20' W 000°04'4 8.3
2018-Jun-17 15:28N 05°20' E 000°00'4 8.3
2018-Jun-17 15:00N 05°20' E 000°04'4 8.2
2018-Jun-17 14:30N 05°19' E 000°08'4 8.2
2018-Jun-17 14:00N 05°19' E 000°12'17 0.4
2018-Jun-15 22:00N 05°33' E 000°23'8 1.4
2018-Jun-15 16:37N 05°30' E 000°16'0 0.5
2018-Jun-15 16:30N 05°30' E 000°16'4 8.2
2018-Jun-15 16:00N 05°30' E 000°12'4 8.0
2018-Jun-15 15:30N 05°30' E 000°08'2 3.5
2018-Jun-15 14:57N 05°28' E 000°08'2 3.3
2018-Jun-15 14:29N 05°27' E 000°08'4 7.4
2018-Jun-15 14:00N 05°25' E 000°05'1 1.0
2018-Jun-15 13:30N 05°25' E 000°05'18 6.9
2018-Jun-15 10:52N 05°15' W 000°10'22 0.5
2018-Jun-13 15:56N 05°20' E 000°11'2 4.4
2018-Jun-13 15:30N 05°22' E 000°10'3 6.9
2018-Jun-13 15:00N 05°21' E 000°07'4 9.0
2018-Jun-13 14:30N 05°22' E 000°03'4 8.7
2018-Jun-13 14:00N 05°23' W 000°02'5 9.2
2018-Jun-13 13:30N 05°23' W 000°06'7 9.4
2018-Jun-13 12:49N 05°23' W 000°13'4 9.4
2018-Jun-13 12:22N 05°23' W 000°17'9 5.2
2018-Jun-13 10:39N 05°24' W 000°26'1 8.8
2018-Jun-13 10:30N 05°25' W 000°25'4 8.8
2018-Jun-13 10:00N 05°25' W 000°21'6 9.4
2018-Jun-13 09:24N 05°26' W 000°15'4 9.5
2018-Jun-13 09:00N 05°26' W 000°11'5 9.3
2018-Jun-13 08:30N 05°29' W 000°08'5 9.2
2018-Jun-13 08:00N 05°31' W 000°03'4 9.2
2018-Jun-13 07:30N 05°33' E 000°01'5 9.3
2018-Jun-13 07:00N 05°37' E 000°04'3 5.0
2018-Jun-13 06:30N 05°39' E 000°05'0 0.4
2018-Jun-13 05:57N 05°39' E 000°05'1 1.6
2018-Jun-13 05:30N 05°39' E 000°05'1 2.1
2018-Jun-13 04:58N 05°38' E 000°06'0 0.0
2018-Jun-13 04:30N 05°38' E 000°06'0 0.0
2018-Jun-13 04:00N 05°38' E 000°06'0 0.0
2018-Jun-13 03:25N 05°38' E 000°06'0 0.0
2018-Jun-13 02:57N 05°38' E 000°06'0 0.0
2018-Jun-13 02:25N 05°38' E 000°06'0 0.0
2018-Jun-13 01:58N 05°38' E 000°06'0 0.0
2018-Jun-13 01:28N 05°38' E 000°06'3 5.8
2018-Jun-13 01:00N 05°38' E 000°09'5 9.1
2018-Jun-13 00:30N 05°37' E 000°14'  
2018-Jun-10 13:59N 05°26' E 000°22'4 9.1
2018-Jun-10 13:30N 05°27' E 000°18'3 6.7
2018-Jun-10 13:00N 05°27' E 000°15'4 7.5
2018-Jun-10 12:30N 05°26' E 000°12'1 1.2
2018-Jun-10 12:00N 05°25' E 000°11'3 6.7
2018-Jun-10 11:30N 05°28' E 000°10'0 0.2
2018-Jun-10 11:00N 05°28' E 000°10'0 0.4
2018-Jun-10 10:29N 05°28' E 000°10'3 7.1
2018-Jun-10 10:00N 05°26' E 000°07'5 9.3
2018-Jun-10 09:30N 05°23' E 000°03'0 0.5
2018-Jun-10 09:00N 05°23' E 000°04'2 4.9
2018-Jun-10 08:30N 05°25' E 000°04'5 9.2
2018-Jun-10 08:00N 05°30' E 000°05'5 9.2
2018-Jun-10 07:30N 05°35' E 000°05'4 8.2
2018-Jun-10 06:59N 05°39' E 000°05'0 0.6
2018-Jun-10 06:30N 05°39' E 000°05'0 0.6
2018-Jun-10 06:00N 05°39' E 000°05'1 1.3
2018-Jun-10 05:30N 05°39' E 000°06'2 4.3
2018-Jun-10 05:00N 05°38' E 000°08'0 0.0
2018-Jun-10 04:30N 05°38' E 000°08'0 0.0
2018-Jun-10 04:00N 05°38' E 000°08'0 0.0
2018-Jun-10 03:30N 05°38' E 000°08'0 0.0
2018-Jun-10 03:00N 05°38' E 000°08'0 0.0
2018-Jun-10 02:30N 05°38' E 000°08'0 0.0
2018-Jun-10 02:00N 05°38' E 000°08'0 0.0
2018-Jun-10 01:30N 05°38' E 000°08'0 0.0
2018-Jun-10 01:00N 05°38' E 000°08'0 0.0
2018-Jun-10 00:30N 05°38' E 000°08'0 0.0
2018-Jun-09 23:59N 05°38' E 000°08'0 0.0
2018-Jun-09 23:30N 05°38' E 000°08'0 0.0
2018-Jun-09 23:00N 05°38' E 000°08'0 0.0
2018-Jun-09 22:30N 05°38' E 000°08'0 0.0
2018-Jun-09 22:00N 05°38' E 000°08'0 0.0
2018-Jun-09 21:30N 05°38' E 000°08'0 0.0
2018-Jun-09 20:59N 05°38' E 000°08'0 0.0
2018-Jun-09 20:30N 05°38' E 000°08'0 0.0
2018-Jun-09 20:00N 05°38' E 000°08'0 0.0
2018-Jun-09 19:29N 05°38' E 000°08'0 0.0
2018-Jun-09 19:00N 05°38' E 000°08'0 0.0
2018-Jun-09 18:29N 05°38' E 000°08'0 0.0
2018-Jun-09 18:00N 05°38' E 000°08'0 0.0
2018-Jun-09 17:30N 05°38' E 000°08'0 0.1
2018-Jun-09 17:00N 05°38' E 000°08'5 9.4
2018-Jun-09 16:30N 05°37' E 000°03'1 2.5
2018-Jun-09 15:58N 05°37' E 000°02'0 0.0
2018-Jun-09 15:30N 05°37' E 000°02'0 0.0
2018-Jun-09 14:30N 05°37' E 000°02'0 0.0
2018-Jun-09 14:00N 05°37' E 000°02'2 3.2
2018-Jun-09 13:29N 05°38' E 000°01'0 0.0
2018-Jun-09 12:54N 05°38' E 000°01'0 0.0
2018-Jun-09 12:27N 05°38' E 000°01'0 0.0
2018-Jun-09 11:48N 05°38' E 000°01'0 0.0
2018-Jun-09 11:30N 05°38' E 000°01'0 0.0
2018-Jun-09 10:58N 05°38' E 000°01'0 0.0
2018-Jun-09 10:30N 05°38' E 000°01'0 0.0
2018-Jun-09 09:59N 05°38' E 000°01'0 0.0
2018-Jun-09 09:30N 05°38' E 000°01'0 0.0
2018-Jun-09 08:59N 05°38' E 000°01'0 0.0
2018-Jun-09 08:24N 05°38' E 000°01'0 0.0
2018-Jun-09 07:52N 05°38' E 000°01'0 0.0
2018-Jun-09 07:30N 05°38' E 000°01'0 0.0
2018-Jun-09 07:00N 05°38' E 000°01'0 0.0
2018-Jun-09 06:30N 05°38' E 000°01'0 0.0
2018-Jun-09 05:56N 05°38' E 000°01'0 0.0
2018-Jun-09 05:29N 05°38' E 000°01'0 0.0
2018-Jun-09 05:00N 05°38' E 000°01'0 0.0
2018-Jun-09 04:30N 05°38' E 000°01'0 0.0
2018-Jun-09 03:54N 05°38' E 000°01'0 0.0
2018-Jun-09 03:30N 05°38' E 000°01'0 0.0
2018-Jun-09 02:57N 05°38' E 000°01'0 0.0
2018-Jun-09 02:12N 05°38' E 000°01'0 0.0
2018-Jun-09 02:00N 05°38' E 000°01'0 0.0
2018-Jun-09 01:29N 05°38' E 000°01'0 0.0
2018-Jun-09 01:00N 05°38' E 000°01'0 0.0
2018-Jun-09 00:29N 05°38' E 000°01'0 0.0
2018-Jun-09 00:00N 05°38' E 000°01'0 0.0
2018-Jun-08 23:28N 05°38' E 000°01'0 0.0
2018-Jun-08 22:52N 05°38' E 000°01'0 0.0
2018-Jun-08 22:30N 05°38' E 000°01'0 0.0
2018-Jun-08 21:43N 05°38' E 000°01'0 0.0
2018-Jun-08 21:30N 05°38' E 000°01'0 0.0
2018-Jun-08 21:00N 05°38' E 000°01'0 0.0
2018-Jun-08 20:29N 05°38' E 000°01'0 0.0
2018-Jun-08 19:57N 05°38' E 000°01'0 0.0
2018-Jun-08 19:26N 05°38' E 000°01'0 0.0
2018-Jun-08 18:58N 05°38' E 000°01'  
Track history (hours):
 
Tides and Currents Weather Stations Pressure Air Temp Water Temp Dewpoint Dewpoint Depression Visibility Wind Speed Wind Dir Waves Ship Positions

Ricouno

Last reported at 2018-Jun-18 18:55 UTC. Time now 2018-Jun-20 20:34 UTC.
Position N 05°33' E 000°24'.

Type: Fishing. MMSI: 627720000.

Date/timePositionNaut miles runAvg speedWind from/ knotsBaromVisibWave heightAir tempDewpointWater temp
2018-Jun-18 18:55N 05°33' E 000°24'510.5
2018-Jun-18 18:28N 05°33' E 000°20'510.4
2018-Jun-18 18:00N 05°34' E 000°15'510.1
2018-Jun-18 17:30N 05°36' E 000°10'5 9.2
2018-Jun-18 17:00N 05°37' E 000°06'4 8.1
2018-Jun-18 16:30N 05°37' E 000°02'4 9.0
2018-Jun-18 16:00N 05°34' W 000°01'510.5
2018-Jun-18 15:30N 05°30' W 000°04'510.7
2018-Jun-18 15:00N 05°27' W 000°09'510.5
2018-Jun-18 14:30N 05°26' W 000°14'8 0.4
2018-Jun-17 18:45N 05°24' W 000°22'5 4.4
2018-Jun-17 17:42N 05°23' W 000°18'3 8.4
2018-Jun-17 17:22N 05°22' W 000°15'6 8.0
2018-Jun-17 16:34N 05°21' W 000°09'1 8.2
2018-Jun-17 16:29N 05°21' W 000°08'4 8.2
2018-Jun-17 16:00N 05°20' W 000°04'4 8.3
2018-Jun-17 15:28N 05°20' E 000°00'4 8.3
2018-Jun-17 15:00N 05°20' E 000°04'4 8.2
2018-Jun-17 14:30N 05°19' E 000°08'4 8.2
2018-Jun-17 14:00N 05°19' E 000°12'17 0.4
2018-Jun-15 22:00N 05°33' E 000°23'8 1.4
2018-Jun-15 16:37N 05°30' E 000°16'0 0.5
2018-Jun-15 16:30N 05°30' E 000°16'4 8.2
2018-Jun-15 16:00N 05°30' E 000°12'4 8.0
2018-Jun-15 15:30N 05°30' E 000°08'2 3.5
2018-Jun-15 14:57N 05°28' E 000°08'2 3.3
2018-Jun-15 14:29N 05°27' E 000°08'4 7.4
2018-Jun-15 14:00N 05°25' E 000°05'1 1.0
2018-Jun-15 13:30N 05°25' E 000°05'18 6.9
2018-Jun-15 10:52N 05°15' W 000°10'22 0.5
2018-Jun-13 15:56N 05°20' E 000°11'2 4.4
2018-Jun-13 15:30N 05°22' E 000°10'3 6.9
2018-Jun-13 15:00N 05°21' E 000°07'4 9.0
2018-Jun-13 14:30N 05°22' E 000°03'4 8.7
2018-Jun-13 14:00N 05°23' W 000°02'5 9.2
2018-Jun-13 13:30N 05°23' W 000°06'7 9.4
2018-Jun-13 12:49N 05°23' W 000°13'4 9.4
2018-Jun-13 12:22N 05°23' W 000°17'9 5.2
2018-Jun-13 10:39N 05°24' W 000°26'1 8.8
2018-Jun-13 10:30N 05°25' W 000°25'4 8.8
2018-Jun-13 10:00N 05°25' W 000°21'6 9.4
2018-Jun-13 09:24N 05°26' W 000°15'4 9.5
2018-Jun-13 09:00N 05°26' W 000°11'5 9.3
2018-Jun-13 08:30N 05°29' W 000°08'5 9.2
2018-Jun-13 08:00N 05°31' W 000°03'4 9.2
2018-Jun-13 07:30N 05°33' E 000°01'5 9.3
2018-Jun-13 07:00N 05°37' E 000°04'3 5.0
2018-Jun-13 06:30N 05°39' E 000°05'0 0.4
2018-Jun-13 05:57N 05°39' E 000°05'1 1.6
2018-Jun-13 05:30N 05°39' E 000°05'1 2.1
2018-Jun-13 04:58N 05°38' E 000°06'0 0.0
2018-Jun-13 04:30N 05°38' E 000°06'0 0.0
2018-Jun-13 04:00N 05°38' E 000°06'0 0.0
2018-Jun-13 03:25N 05°38' E 000°06'0 0.0
2018-Jun-13 02:57N 05°38' E 000°06'0 0.0
2018-Jun-13 02:25N 05°38' E 000°06'0 0.0
2018-Jun-13 01:58N 05°38' E 000°06'0 0.0
2018-Jun-13 01:28N 05°38' E 000°06'3 5.8
2018-Jun-13 01:00N 05°38' E 000°09'5 9.1
2018-Jun-13 00:30N 05°37' E 000°14'  
2018-Jun-10 13:59N 05°26' E 000°22'4 9.1
2018-Jun-10 13:30N 05°27' E 000°18'3 6.7
2018-Jun-10 13:00N 05°27' E 000°15'4 7.5
2018-Jun-10 12:30N 05°26' E 000°12'1 1.2
2018-Jun-10 12:00N 05°25' E 000°11'3 6.7
2018-Jun-10 11:30N 05°28' E 000°10'0 0.2
2018-Jun-10 11:00N 05°28' E 000°10'0 0.4
2018-Jun-10 10:29N 05°28' E 000°10'3 7.1
2018-Jun-10 10:00N 05°26' E 000°07'5 9.3
2018-Jun-10 09:30N 05°23' E 000°03'0 0.5
2018-Jun-10 09:00N 05°23' E 000°04'2 4.9
2018-Jun-10 08:30N 05°25' E 000°04'5 9.2
2018-Jun-10 08:00N 05°30' E 000°05'5 9.2
2018-Jun-10 07:30N 05°35' E 000°05'4 8.2
2018-Jun-10 06:59N 05°39' E 000°05'0 0.6
2018-Jun-10 06:30N 05°39' E 000°05'0 0.6
2018-Jun-10 06:00N 05°39' E 000°05'1 1.3
2018-Jun-10 05:30N 05°39' E 000°06'2 4.3
2018-Jun-10 05:00N 05°38' E 000°08'0 0.0
2018-Jun-10 04:30N 05°38' E 000°08'0 0.0
2018-Jun-10 04:00N 05°38' E 000°08'0 0.0
2018-Jun-10 03:30N 05°38' E 000°08'0 0.0
2018-Jun-10 03:00N 05°38' E 000°08'0 0.0
2018-Jun-10 02:30N 05°38' E 000°08'0 0.0
2018-Jun-10 02:00N 05°38' E 000°08'0 0.0
2018-Jun-10 01:30N 05°38' E 000°08'0 0.0
2018-Jun-10 01:00N 05°38' E 000°08'0 0.0
2018-Jun-10 00:30N 05°38' E 000°08'0 0.0
2018-Jun-09 23:59N 05°38' E 000°08'0 0.0
2018-Jun-09 23:30N 05°38' E 000°08'0 0.0
2018-Jun-09 23:00N 05°38' E 000°08'0 0.0
2018-Jun-09 22:30N 05°38' E 000°08'0 0.0
2018-Jun-09 22:00N 05°38' E 000°08'0 0.0
2018-Jun-09 21:30N 05°38' E 000°08'0 0.0
2018-Jun-09 20:59N 05°38' E 000°08'0 0.0
2018-Jun-09 20:30N 05°38' E 000°08'0 0.0
2018-Jun-09 20:00N 05°38' E 000°08'0 0.0
2018-Jun-09 19:29N 05°38' E 000°08'0 0.0
2018-Jun-09 19:00N 05°38' E 000°08'0 0.0
2018-Jun-09 18:29N 05°38' E 000°08'0 0.0
2018-Jun-09 18:00N 05°38' E 000°08'0 0.0
2018-Jun-09 17:30N 05°38' E 000°08'0 0.1
2018-Jun-09 17:00N 05°38' E 000°08'5 9.4
2018-Jun-09 16:30N 05°37' E 000°03'1 2.5
2018-Jun-09 15:58N 05°37' E 000°02'0 0.0
2018-Jun-09 15:30N 05°37' E 000°02'0 0.0
2018-Jun-09 14:30N 05°37' E 000°02'0 0.0
2018-Jun-09 14:00N 05°37' E 000°02'2 3.2
2018-Jun-09 13:29N 05°38' E 000°01'0 0.0
2018-Jun-09 12:54N 05°38' E 000°01'0 0.0
2018-Jun-09 12:27N 05°38' E 000°01'0 0.0
2018-Jun-09 11:48N 05°38' E 000°01'0 0.0
2018-Jun-09 11:30N 05°38' E 000°01'0 0.0
2018-Jun-09 10:58N 05°38' E 000°01'0 0.0
2018-Jun-09 10:30N 05°38' E 000°01'0 0.0
2018-Jun-09 09:59N 05°38' E 000°01'0 0.0
2018-Jun-09 09:30N 05°38' E 000°01'0 0.0
2018-Jun-09 08:59N 05°38' E 000°01'0 0.0
2018-Jun-09 08:24N 05°38' E 000°01'0 0.0
2018-Jun-09 07:52N 05°38' E 000°01'0 0.0
2018-Jun-09 07:30N 05°38' E 000°01'0 0.0
2018-Jun-09 07:00N 05°38' E 000°01'0 0.0
2018-Jun-09 06:30N 05°38' E 000°01'0 0.0
2018-Jun-09 05:56N 05°38' E 000°01'0 0.0
2018-Jun-09 05:29N 05°38' E 000°01'0 0.0
2018-Jun-09 05:00N 05°38' E 000°01'0 0.0
2018-Jun-09 04:30N 05°38' E 000°01'0 0.0
2018-Jun-09 03:54N 05°38' E 000°01'0 0.0
2018-Jun-09 03:30N 05°38' E 000°01'0 0.0
2018-Jun-09 02:57N 05°38' E 000°01'0 0.0
2018-Jun-09 02:12N 05°38' E 000°01'0 0.0
2018-Jun-09 02:00N 05°38' E 000°01'0 0.0
2018-Jun-09 01:29N 05°38' E 000°01'0 0.0
2018-Jun-09 01:00N 05°38' E 000°01'0 0.0
2018-Jun-09 00:29N 05°38' E 000°01'0 0.0
2018-Jun-09 00:00N 05°38' E 000°01'0 0.0
2018-Jun-08 23:28N 05°38' E 000°01'0 0.0
2018-Jun-08 22:52N 05°38' E 000°01'0 0.0
2018-Jun-08 22:30N 05°38' E 000°01'0 0.0
2018-Jun-08 21:43N 05°38' E 000°01'0 0.0
2018-Jun-08 21:30N 05°38' E 000°01'0 0.0
2018-Jun-08 21:00N 05°38' E 000°01'0 0.0
2018-Jun-08 20:29N 05°38' E 000°01'0 0.0
2018-Jun-08 19:57N 05°38' E 000°01'0 0.0
2018-Jun-08 19:26N 05°38' E 000°01'0 0.0
2018-Jun-08 18:58N 05°38' E 000°01'  

Dump ship's entire track history